• Join FlightAware (Why Join?)
  • Login
  • US Flag 
11:53AM EDT


 

Airport Tracker/Info


-or-


 

Live Flight TrackerFlight Track Log ✈ SKW5373 ✈ 12-May-2013 ✈ KLAX - KSBA

Flight Track Log - Related Links

Times and Time Zones

All times are in EDT time to prevent confusion due to time zone crossing. See the SKW5373 flight status page for this flight to view local times or setup timezone preferences in your user account.

Time Position Orientation Groundspeed Altitude Reporting Facility
EDT Latitude Longitude Course Direction KTS MPH feet Rate Location/Type
01:38PM 33.9500 -118.4500 292° West 156 180 1,300  Level Southern California TRACON
01:39PM 33.9500 -118.5000 270° West 199 229 2,500 1,380 Climbing Southern California TRACON
01:40PM 33.9667 -118.5667 287° West 220 253 4,000 1,440 Climbing Southern California TRACON
01:41PM 33.9778 -118.5933 297° West 218 251 4,400 1,440 Climbing Los Angeles Center
01:42PM 34.0883 -118.8375 296° West  Level FlightAware Approximate
01:42PM 34.0008 -118.6697 290° West 224 258 6,000  Level Los Angeles Center
01:43PM 34.1271 -118.9474 292° West  Level FlightAware Approximate
01:43PM 34.0256 -118.7475 291° West 247 284 6,000  Level Los Angeles Center
01:44PM 34.1498 -119.0152 292° West  Level FlightAware Approximate
01:44PM 34.0408 -118.8178 285° West 261 300 6,000  Level Los Angeles Center
01:45PM 34.0747 -118.9211 292° West 263 303 6,000  Level Los Angeles Center
01:46PM 34.1064 -118.9942 298° West 263 303 6,000  Level Los Angeles Center
01:47PM 34.1394 -119.0744 296° West 262 302 6,000  Level Los Angeles Center
01:47PM 34.1469 -119.0872 305° West 263 303 6,000  Level Los Angeles Center
01:48PM 34.1858 -119.1992 293° West 259 298 6,000  Level Los Angeles Center
01:49PM 34.2164 -119.2794 295° West 263 303 6,000  Level Los Angeles Center
01:50PM 34.2508 -119.3686 295° West 262 302 6,000 -300 Level Los Angeles Center
01:51PM 34.2811 -119.4447 296° West 264 304 5,400 -1,140 Descending Los Angeles Center
01:52PM 34.3147 -119.5275 296° West 275 316 3,800 -1,440 Descending Los Angeles Center
01:53PM 34.3450 -119.6142 293° West 273 314 2,500 -900 Descending Los Angeles Center
01:54PM 34.3711 -119.6917 292° West 259 298 2,000 -540 Descending Los Angeles Center